sensor_id;sensor_type;location;lat;lon;timestamp;pressure;altitude;pressure_sealevel;temperature;humidity
50933;BME280;36921;49.006;9.292;2023-04-03T00:01:18;99570.75;;;2.58;100.00
50933;BME280;36921;49.006;9.292;2023-04-03T00:03:43;99575.72;;;2.63;100.00
50933;BME280;36921;49.006;9.292;2023-04-03T00:06:10;99574.16;;;2.60;100.00
50933;BME280;36921;49.006;9.292;2023-04-03T00:08:37;99553.56;;;2.51;100.00
50933;BME280;36921;49.006;9.292;2023-04-03T00:11:03;99571.38;;;2.72;100.00
50933;BME280;36921;49.006;9.292;2023-04-03T00:13:29;99570.44;;;2.73;100.00
50933;BME280;36921;49.006;9.292;2023-04-03T00:15:54;99554.63;;;2.60;100.00
50933;BME280;36921;49.006;9.292;2023-04-03T00:18:20;99552.22;;;2.57;100.00
50933;BME280;36921;49.006;9.292;2023-04-03T00:20:46;99571.94;;;2.66;100.00
50933;BME280;36921;49.006;9.292;2023-04-03T00:23:12;99560.34;;;2.55;100.00
50933;BME280;36921;49.006;9.292;2023-04-03T00:25:37;99575.53;;;2.55;100.00
50933;BME280;36921;49.006;9.292;2023-04-03T00:28:04;99578.22;;;2.55;100.00
50933;BME280;36921;49.006;9.292;2023-04-03T00:30:30;99569.34;;;2.54;100.00
50933;BME280;36921;49.006;9.292;2023-04-03T00:32:55;99573.81;;;2.44;100.00
50933;BME280;36921;49.006;9.292;2023-04-03T00:35:21;99561.38;;;2.33;100.00
50933;BME280;36921;49.006;9.292;2023-04-03T00:37:47;99577.69;;;2.40;100.00
50933;BME280;36921;49.006;9.292;2023-04-03T00:40:14;99579.16;;;2.44;100.00
50933;BME280;36921;49.006;9.292;2023-04-03T00:42:41;99579.38;;;2.41;100.00
50933;BME280;36921;49.006;9.292;2023-04-03T00:47:35;99582.97;;;2.30;100.00
50933;BME280;36921;49.006;9.292;2023-04-03T00:50:01;99567.69;;;2.11;100.00
50933;BME280;36921;49.006;9.292;2023-04-03T00:52:29;99562.28;;;2.02;100.00
50933;BME280;36921;49.006;9.292;2023-04-03T00:54:59;99568.72;;;1.99;100.00
50933;BME280;36921;49.006;9.292;2023-04-03T00:57:26;99569.97;;;1.95;100.00
50933;BME280;36921;49.006;9.292;2023-04-03T00:59:56;99582.94;;;2.00;100.00
50933;BME280;36921;49.006;9.292;2023-04-03T01:02:23;99573.22;;;1.98;100.00
50933;BME280;36921;49.006;9.292;2023-04-03T01:04:48;99572.56;;;1.85;100.00
50933;BME280;36921;49.006;9.292;2023-04-03T01:07:20;99583.69;;;1.90;100.00
50933;BME280;36921;49.006;9.292;2023-04-03T01:09:48;99584.81;;;1.88;100.00
50933;BME280;36921;49.006;9.292;2023-04-03T01:12:23;99578.16;;;1.82;100.00
50933;BME280;36921;49.006;9.292;2023-04-03T01:14:53;99576.72;;;1.78;100.00
50933;BME280;36921;49.006;9.292;2023-04-03T01:28:03;99567.56;;;1.60;100.00
50933;BME280;36921;49.006;9.292;2023-04-03T01:33:43;99566.28;;;1.54;100.00
50933;BME280;36921;49.006;9.292;2023-04-03T01:36:12;99574.41;;;1.52;100.00
50933;BME280;36921;49.006;9.292;2023-04-03T01:38:38;99581.56;;;1.52;100.00
50933;BME280;36921;49.006;9.292;2023-04-03T01:41:03;99580.13;;;1.48;100.00
50933;BME280;36921;49.006;9.292;2023-04-03T01:43:29;99598.16;;;1.56;100.00
50933;BME280;36921;49.006;9.292;2023-04-03T01:45:54;99587.50;;;1.56;100.00
50933;BME280;36921;49.006;9.292;2023-04-03T01:48:20;99595.19;;;1.70;100.00
50933;BME280;36921;49.006;9.292;2023-04-03T01:50:45;99600.59;;;1.80;100.00
50933;BME280;36921;49.006;9.292;2023-04-03T01:53:11;99608.56;;;1.91;100.00
50933;BME280;36921;49.006;9.292;2023-04-03T01:55:37;99596.38;;;1.77;100.00
50933;BME280;36921;49.006;9.292;2023-04-03T01:58:02;99601.16;;;1.94;100.00
50933;BME280;36921;49.006;9.292;2023-04-03T02:00:27;99610.94;;;2.05;100.00
50933;BME280;36921;49.006;9.292;2023-04-03T02:02:52;99606.88;;;2.11;100.00
50933;BME280;36921;49.006;9.292;2023-04-03T02:05:18;99599.34;;;2.16;100.00
50933;BME280;36921;49.006;9.292;2023-04-03T02:07:43;99595.84;;;2.15;100.00
50933;BME280;36921;49.006;9.292;2023-04-03T02:10:09;99605.44;;;2.28;100.00
50933;BME280;36921;49.006;9.292;2023-04-03T02:12:34;99589.69;;;2.25;100.00
50933;BME280;36921;49.006;9.292;2023-04-03T02:15:00;99591.13;;;2.29;100.00
50933;BME280;36921;49.006;9.292;2023-04-03T02:17:26;99596.22;;;2.32;100.00
50933;BME280;36921;49.006;9.292;2023-04-03T02:19:51;99582.53;;;2.25;100.00
50933;BME280;36921;49.006;9.292;2023-04-03T02:22:16;99598.81;;;2.43;100.00
50933;BME280;36921;49.006;9.292;2023-04-03T02:24:42;99605.50;;;2.37;100.00
50933;BME280;36921;49.006;9.292;2023-04-03T02:27:08;99585.06;;;2.27;100.00
50933;BME280;36921;49.006;9.292;2023-04-03T02:29:33;99605.25;;;2.40;100.00
50933;BME280;36921;49.006;9.292;2023-04-03T02:31:58;99592.56;;;2.33;100.00
50933;BME280;36921;49.006;9.292;2023-04-03T02:34:24;99599.91;;;2.40;100.00
50933;BME280;36921;49.006;9.292;2023-04-03T02:36:49;99598.69;;;2.45;100.00
50933;BME280;36921;49.006;9.292;2023-04-03T02:39:14;99615.44;;;2.47;100.00
50933;BME280;36921;49.006;9.292;2023-04-03T02:41:40;99604.97;;;2.44;100.00
50933;BME280;36921;49.006;9.292;2023-04-03T02:44:06;99600.91;;;2.39;100.00
50933;BME280;36921;49.006;9.292;2023-04-03T02:46:34;99591.22;;;2.38;100.00
50933;BME280;36921;49.006;9.292;2023-04-03T02:48:59;99614.16;;;2.51;100.00
50933;BME280;36921;49.006;9.292;2023-04-03T02:51:24;99604.97;;;2.44;100.00
50933;BME280;36921;49.006;9.292;2023-04-03T02:53:50;99608.63;;;2.42;100.00
50933;BME280;36921;49.006;9.292;2023-04-03T02:56:16;99617.88;;;2.59;100.00
50933;BME280;36921;49.006;9.292;2023-04-03T02:58:43;99606.50;;;2.57;100.00
50933;BME280;36921;49.006;9.292;2023-04-03T03:01:09;99612.66;;;2.58;100.00
50933;BME280;36921;49.006;9.292;2023-04-03T03:03:34;99608.03;;;2.60;100.00
50933;BME280;36921;49.006;9.292;2023-04-03T03:06:04;99595.84;;;2.46;100.00
50933;BME280;36921;49.006;9.292;2023-04-03T03:08:29;99604.75;;;2.47;100.00
50933;BME280;36921;49.006;9.292;2023-04-03T03:10:54;99605.88;;;2.54;100.00
50933;BME280;36921;49.006;9.292;2023-04-03T03:13:20;99602.53;;;2.52;100.00
50933;BME280;36921;49.006;9.292;2023-04-03T03:15:45;99592.63;;;2.42;100.00
50933;BME280;36921;49.006;9.292;2023-04-03T03:18:10;99580.53;;;2.38;100.00
50933;BME280;36921;49.006;9.292;2023-04-03T03:20:36;99606.53;;;2.46;100.00
50933;BME280;36921;49.006;9.292;2023-04-03T03:23:01;99594.56;;;2.40;100.00
50933;BME280;36921;49.006;9.292;2023-04-03T03:25:26;99593.06;;;2.48;100.00
50933;BME280;36921;49.006;9.292;2023-04-03T03:27:51;99592.06;;;2.49;100.00
50933;BME280;36921;49.006;9.292;2023-04-03T03:30:17;99599.59;;;2.55;100.00
50933;BME280;36921;49.006;9.292;2023-04-03T03:32:42;99580.09;;;2.43;100.00
50933;BME280;36921;49.006;9.292;2023-04-03T03:35:08;99578.41;;;2.42;100.00
50933;BME280;36921;49.006;9.292;2023-04-03T03:37:33;99589.41;;;2.49;100.00
50933;BME280;36921;49.006;9.292;2023-04-03T03:39:58;99577.31;;;2.45;100.00
50933;BME280;36921;49.006;9.292;2023-04-03T03:42:28;99600.31;;;2.57;100.00
50933;BME280;36921;49.006;9.292;2023-04-03T03:44:53;99589.94;;;2.42;100.00
50933;BME280;36921;49.006;9.292;2023-04-03T03:47:19;99595.09;;;2.34;100.00
50933;BME280;36921;49.006;9.292;2023-04-03T03:49:44;99589.84;;;2.23;100.00
50933;BME280;36921;49.006;9.292;2023-04-03T03:52:10;99591.78;;;2.21;100.00
50933;BME280;36921;49.006;9.292;2023-04-03T03:54:37;99595.09;;;2.13;100.00
50933;BME280;36921;49.006;9.292;2023-04-03T03:57:04;99599.34;;;2.16;100.00
50933;BME280;36921;49.006;9.292;2023-04-03T03:59:29;99599.47;;;2.14;100.00
50933;BME280;36921;49.006;9.292;2023-04-03T04:01:56;99592.81;;;2.09;100.00
50933;BME280;36921;49.006;9.292;2023-04-03T04:04:21;99600.81;;;2.09;100.00
50933;BME280;36921;49.006;9.292;2023-04-03T04:06:47;99596.09;;;2.12;100.00
50933;BME280;36921;49.006;9.292;2023-04-03T04:09:12;99598.88;;;2.11;100.00
50933;BME280;36921;49.006;9.292;2023-04-03T04:11:37;99595.69;;;2.17;100.00
50933;BME280;36921;49.006;9.292;2023-04-03T04:14:05;99602.00;;;2.16;100.00
50933;BME280;36921;49.006;9.292;2023-04-03T04:16:30;99606.78;;;2.12;100.00
50933;BME280;36921;49.006;9.292;2023-04-03T04:18:56;99601.28;;;2.14;100.00
50933;BME280;36921;49.006;9.292;2023-04-03T04:21:21;99598.16;;;2.09;100.00
50933;BME280;36921;49.006;9.292;2023-04-03T04:23:47;99610.94;;;2.05;100.00
50933;BME280;36921;49.006;9.292;2023-04-03T04:26:12;99607.66;;;2.02;100.00
50933;BME280;36921;49.006;9.292;2023-04-03T04:28:37;99612.28;;;2.00;100.00
50933;BME280;36921;49.006;9.292;2023-04-03T04:31:03;99618.31;;;2.02;100.00
50933;BME280;36921;49.006;9.292;2023-04-03T04:33:28;99620.75;;;2.05;100.00
50933;BME280;36921;49.006;9.292;2023-04-03T04:35:55;99612.13;;;2.12;100.00
50933;BME280;36921;49.006;9.292;2023-04-03T04:38:20;99613.91;;;2.12;100.00
50933;BME280;36921;49.006;9.292;2023-04-03T04:40:47;99614.91;;;2.11;100.00
50933;BME280;36921;49.006;9.292;2023-04-03T04:43:12;99614.44;;;2.06;100.00
50933;BME280;36921;49.006;9.292;2023-04-03T04:45:40;99606.97;;;2.00;100.00
50933;BME280;36921;49.006;9.292;2023-04-03T04:48:05;99614.50;;;1.94;100.00
50933;BME280;36921;49.006;9.292;2023-04-03T04:50:31;99619.56;;;1.97;100.00
50933;BME280;36921;49.006;9.292;2023-04-03T04:52:56;99619.84;;;1.94;100.00
50933;BME280;36921;49.006;9.292;2023-04-03T04:55:21;99615.59;;;1.92;100.00
50933;BME280;36921;49.006;9.292;2023-04-03T04:57:47;99611.22;;;1.91;100.00
50933;BME280;36921;49.006;9.292;2023-04-03T05:00:13;99616.97;;;1.86;100.00
50933;BME280;36921;49.006;9.292;2023-04-03T05:02:38;99618.38;;;1.90;100.00
50933;BME280;36921;49.006;9.292;2023-04-03T05:05:05;99625.28;;;1.93;100.00
50933;BME280;36921;49.006;9.292;2023-04-03T05:07:30;99624.06;;;1.97;100.00
50933;BME280;36921;49.006;9.292;2023-04-03T05:09:56;99622.09;;;1.99;100.00
50933;BME280;36921;49.006;9.292;2023-04-03T05:12:21;99626.34;;;2.02;100.00
50933;BME280;36921;49.006;9.292;2023-04-03T05:14:47;99630.00;;;2.01;100.00
50933;BME280;36921;49.006;9.292;2023-04-03T05:17:12;99628.88;;;2.03;100.00
50933;BME280;36921;49.006;9.292;2023-04-03T05:19:44;99623.28;;;2.06;100.00
50933;BME280;36921;49.006;9.292;2023-04-03T05:22:09;99627.25;;;2.12;100.00
50933;BME280;36921;49.006;9.292;2023-04-03T05:24:35;99630.66;;;2.14;100.00
50933;BME280;36921;49.006;9.292;2023-04-03T05:27:00;99638.53;;;2.15;100.00
50933;BME280;36921;49.006;9.292;2023-04-03T05:29:26;99630.53;;;2.15;100.00
50933;BME280;36921;49.006;9.292;2023-04-03T05:31:51;99639.84;;;2.21;100.00
50933;BME280;36921;49.006;9.292;2023-04-03T05:34:17;99632.41;;;2.25;100.00
50933;BME280;36921;49.006;9.292;2023-04-03T05:36:42;99639.28;;;2.38;100.00
50933;BME280;36921;49.006;9.292;2023-04-03T05:39:08;99638.59;;;2.46;100.00
50933;BME280;36921;49.006;9.292;2023-04-03T05:41:37;99633.47;;;2.54;100.00
50933;BME280;36921;49.006;9.292;2023-04-03T05:44:03;99635.25;;;2.75;100.00
50933;BME280;36921;49.006;9.292;2023-04-03T05:46:28;99632.78;;;2.83;100.00
50933;BME280;36921;49.006;9.292;2023-04-03T05:48:54;99626.03;;;2.89;100.00
50933;BME280;36921;49.006;9.292;2023-04-03T05:51:34;99635.41;;;3.04;100.00
50933;BME280;36921;49.006;9.292;2023-04-03T05:54:13;99649.09;;;3.20;100.00
50933;BME280;36921;49.006;9.292;2023-04-03T05:56:41;99640.31;;;3.49;100.00
50933;BME280;36921;49.006;9.292;2023-04-03T05:59:06;99640.63;;;3.65;100.00
50933;BME280;36921;49.006;9.292;2023-04-03T06:01:32;99644.03;;;3.97;100.00
50933;BME280;36921;49.006;9.292;2023-04-03T06:03:59;99645.16;;;3.94;100.00
50933;BME280;36921;49.006;9.292;2023-04-03T06:06:24;99647.69;;;3.95;100.00
50933;BME280;36921;49.006;9.292;2023-04-03T06:08:50;99652.34;;;4.03;100.00
50933;BME280;36921;49.006;9.292;2023-04-03T06:11:16;99653.06;;;4.25;100.00
50933;BME280;36921;49.006;9.292;2023-04-03T06:13:41;99651.94;;;4.17;100.00
50933;BME280;36921;49.006;9.292;2023-04-03T06:16:11;99654.06;;;4.14;100.00
50933;BME280;36921;49.006;9.292;2023-04-03T06:18:37;99649.81;;;4.31;100.00
50933;BME280;36921;49.006;9.292;2023-04-03T06:21:03;99654.69;;;4.45;100.00
50933;BME280;36921;49.006;9.292;2023-04-03T06:23:29;99657.81;;;4.50;100.00
50933;BME280;36921;49.006;9.292;2023-04-03T06:25:55;99654.19;;;4.89;100.00
50933;BME280;36921;49.006;9.292;2023-04-03T06:28:20;99655.66;;;5.11;100.00
50933;BME280;36921;49.006;9.292;2023-04-03T06:30:46;99656.84;;;5.81;100.00
50933;BME280;36921;49.006;9.292;2023-04-03T06:33:11;99663.25;;;5.70;100.00
50933;BME280;36921;49.006;9.292;2023-04-03T06:35:36;99657.91;;;6.16;100.00
50933;BME280;36921;49.006;9.292;2023-04-03T06:38:03;99660.59;;;8.30;100.00
50933;BME280;36921;49.006;9.292;2023-04-03T06:40:34;99651.53;;;8.64;100.00
50933;BME280;36921;49.006;9.292;2023-04-03T06:42:59;99664.47;;;9.57;93.14
50933;BME280;36921;49.006;9.292;2023-04-03T06:45:25;99656.59;;;8.83;93.39
50933;BME280;36921;49.006;9.292;2023-04-03T06:47:50;99666.00;;;8.22;100.00
50933;BME280;36921;49.006;9.292;2023-04-03T06:50:19;99670.28;;;7.74;100.00
50933;BME280;36921;49.006;9.292;2023-04-03T06:52:45;99664.50;;;8.68;100.00
50933;BME280;36921;49.006;9.292;2023-04-03T06:55:10;99654.97;;;9.61;87.70
50933;BME280;36921;49.006;9.292;2023-04-03T06:57:37;99665.88;;;9.76;77.67
50933;BME280;36921;49.006;9.292;2023-04-03T07:00:04;99661.84;;;10.87;73.94
50933;BME280;36921;49.006;9.292;2023-04-03T07:02:29;99664.09;;;9.91;72.14
50933;BME280;36921;49.006;9.292;2023-04-03T07:04:55;99672.94;;;10.08;77.41
50933;BME280;36921;49.006;9.292;2023-04-03T07:07:20;99662.03;;;12.25;70.28
50933;BME280;36921;49.006;9.292;2023-04-03T07:10:16;99664.69;;;15.61;57.50
50933;BME280;36921;49.006;9.292;2023-04-03T07:12:57;99667.84;;;14.05;56.50
50933;BME280;36921;49.006;9.292;2023-04-03T07:15:40;99679.31;;;15.01;53.95
50933;BME280;36921;49.006;9.292;2023-04-03T07:18:05;99668.97;;;15.43;52.12
50933;BME280;36921;49.006;9.292;2023-04-03T07:20:31;99681.41;;;12.44;55.35
50933;BME280;36921;49.006;9.292;2023-04-03T07:23:10;99692.75;;;10.78;60.92
50933;BME280;36921;49.006;9.292;2023-04-03T07:25:36;99690.59;;;11.11;63.36
50933;BME280;36921;49.006;9.292;2023-04-03T07:28:02;99694.69;;;12.17;61.83
50933;BME280;36921;49.006;9.292;2023-04-03T07:30:29;99684.09;;;14.53;55.22
50933;BME280;36921;49.006;9.292;2023-04-03T07:32:54;99689.72;;;15.44;53.18
50933;BME280;36921;49.006;9.292;2023-04-03T07:35:20;99689.13;;;16.39;49.82
50933;BME280;36921;49.006;9.292;2023-04-03T07:37:46;99690.75;;;13.75;52.32
50933;BME280;36921;49.006;9.292;2023-04-03T07:40:11;99707.03;;;11.39;58.08
50933;BME280;36921;49.006;9.292;2023-04-03T07:42:36;99719.53;;;10.72;62.99
50933;BME280;36921;49.006;9.292;2023-04-03T07:45:03;99710.34;;;9.65;68.21
50933;BME280;36921;49.006;9.292;2023-04-03T07:47:28;99707.50;;;8.94;75.05
50933;BME280;36921;49.006;9.292;2023-04-03T07:49:54;99715.53;;;8.21;86.49
50933;BME280;36921;49.006;9.292;2023-04-03T07:52:19;99718.50;;;7.51;100.00
50933;BME280;36921;49.006;9.292;2023-04-03T07:54:45;99715.44;;;7.45;100.00
50933;BME280;36921;49.006;9.292;2023-04-03T07:57:10;99717.00;;;7.56;100.00
50933;BME280;36921;49.006;9.292;2023-04-03T07:59:45;99718.44;;;7.08;100.00
50933;BME280;36921;49.006;9.292;2023-04-03T08:02:13;99714.72;;;7.09;100.00
50933;BME280;36921;49.006;9.292;2023-04-03T08:04:45;99706.59;;;7.27;100.00
50933;BME280;36921;49.006;9.292;2023-04-03T08:07:10;99723.47;;;7.37;100.00
50933;BME280;36921;49.006;9.292;2023-04-03T08:09:36;99697.94;;;7.41;100.00
50933;BME280;36921;49.006;9.292;2023-04-03T08:12:01;99734.25;;;7.80;100.00
50933;BME280;36921;49.006;9.292;2023-04-03T08:14:26;99699.34;;;8.04;100.00
50933;BME280;36921;49.006;9.292;2023-04-03T08:16:52;99720.50;;;8.50;94.43
50933;BME280;36921;49.006;9.292;2023-04-03T08:19:17;99726.03;;;8.56;86.25
50933;BME280;36921;49.006;9.292;2023-04-03T08:21:43;99702.22;;;8.35;87.90
50933;BME280;36921;49.006;9.292;2023-04-03T08:24:09;99719.66;;;8.49;94.31
50933;BME280;36921;49.006;9.292;2023-04-03T08:26:34;99727.72;;;8.98;89.47
50933;BME280;36921;49.006;9.292;2023-04-03T08:29:00;99713.94;;;9.49;84.05
50933;BME280;36921;49.006;9.292;2023-04-03T08:31:25;99687.22;;;9.62;79.55
50933;BME280;36921;49.006;9.292;2023-04-03T08:33:50;99698.06;;;9.54;78.89
50933;BME280;36921;49.006;9.292;2023-04-03T08:36:27;99724.53;;;8.95;81.98
50933;BME280;36921;49.006;9.292;2023-04-03T08:38:54;99702.25;;;9.01;76.55
50933;BME280;36921;49.006;9.292;2023-04-03T08:41:33;99724.06;;;9.55;73.75
50933;BME280;36921;49.006;9.292;2023-04-03T08:44:01;99719.31;;;9.97;74.83
50933;BME280;36921;49.006;9.292;2023-04-03T08:46:49;99703.34;;;10.10;71.23
50933;BME280;36921;49.006;9.292;2023-04-03T08:49:31;99718.91;;;11.00;66.90
50933;BME280;36921;49.006;9.292;2023-04-03T08:51:59;99715.38;;;10.85;66.31
50933;BME280;36921;49.006;9.292;2023-04-03T08:54:47;99719.63;;;10.02;69.23
50933;BME280;36921;49.006;9.292;2023-04-03T08:57:13;99717.84;;;10.17;70.44
50933;BME280;36921;49.006;9.292;2023-04-03T08:59:39;99723.38;;;11.31;65.44
50933;BME280;36921;49.006;9.292;2023-04-03T09:04:47;99720.50;;;10.57;63.48
50933;BME280;36921;49.006;9.292;2023-04-03T09:07:20;99718.69;;;10.18;64.37
50933;BME280;36921;49.006;9.292;2023-04-03T09:09:46;99728.13;;;11.14;63.77
50933;BME280;36921;49.006;9.292;2023-04-03T09:12:19;99725.69;;;11.19;64.00
50933;BME280;36921;49.006;9.292;2023-04-03T09:15:11;99724.31;;;11.38;60.53
50933;BME280;36921;49.006;9.292;2023-04-03T09:20:46;99716.41;;;14.08;55.56
50933;BME280;36921;49.006;9.292;2023-04-03T09:25:51;99726.16;;;13.47;50.55
50933;BME280;36921;49.006;9.292;2023-04-03T09:28:18;99715.22;;;12.63;54.67
50933;BME280;36921;49.006;9.292;2023-04-03T09:30:43;99718.44;;;12.73;53.22
50933;BME280;36921;49.006;9.292;2023-04-03T09:33:09;99710.72;;;12.98;52.52
50933;BME280;36921;49.006;9.292;2023-04-03T09:35:37;99718.66;;;13.49;55.79
50933;BME280;36921;49.006;9.292;2023-04-03T09:40:47;99715.25;;;13.19;59.59
50933;BME280;36921;49.006;9.292;2023-04-03T09:43:51;99711.97;;;15.21;57.27
50933;BME280;36921;49.006;9.292;2023-04-03T09:48:52;99695.28;;;14.10;52.07
50933;BME280;36921;49.006;9.292;2023-04-03T09:51:25;99699.97;;;14.42;50.38
50933;BME280;36921;49.006;9.292;2023-04-03T09:53:51;99715.59;;;14.14;52.55
50933;BME280;36921;49.006;9.292;2023-04-03T09:58:44;99715.03;;;13.77;54.35
50933;BME280;36921;49.006;9.292;2023-04-03T10:01:37;99710.47;;;13.91;51.33
50933;BME280;36921;49.006;9.292;2023-04-03T10:06:33;99706.50;;;12.10;50.09
50933;BME280;36921;49.006;9.292;2023-04-03T10:09:06;99708.88;;;11.24;50.24
50933;BME280;36921;49.006;9.292;2023-04-03T10:14:31;99718.09;;;10.39;55.95
50933;BME280;36921;49.006;9.292;2023-04-03T10:17:05;99704.94;;;9.65;61.88
50933;BME280;36921;49.006;9.292;2023-04-03T10:27:55;99715.41;;;9.04;71.95
50933;BME280;36921;49.006;9.292;2023-04-03T10:33:21;99709.53;;;8.76;82.76
50933;BME280;36921;49.006;9.292;2023-04-03T10:36:06;99704.56;;;10.39;71.25
50933;BME280;36921;49.006;9.292;2023-04-03T10:39:02;99690.00;;;13.25;58.61
50933;BME280;36921;49.006;9.292;2023-04-03T10:47:09;99708.28;;;9.28;74.79
50933;BME280;36921;49.006;9.292;2023-04-03T10:52:37;99706.16;;;8.49;70.51
50933;BME280;36921;49.006;9.292;2023-04-03T10:55:22;99703.09;;;9.02;74.73
50933;BME280;36921;49.006;9.292;2023-04-03T10:57:49;99676.78;;;8.95;78.12
50933;BME280;36921;49.006;9.292;2023-04-03T11:00:22;99696.72;;;8.86;81.17
50933;BME280;36921;49.006;9.292;2023-04-03T11:02:56;99702.63;;;8.49;85.62
50933;BME280;36921;49.006;9.292;2023-04-03T11:05:46;99698.41;;;8.54;85.06
50933;BME280;36921;49.006;9.292;2023-04-03T11:08:24;99691.63;;;8.34;93.71
50933;BME280;36921;49.006;9.292;2023-04-03T11:10:56;99703.63;;;8.48;84.93
50933;BME280;36921;49.006;9.292;2023-04-03T11:13:48;99685.69;;;8.30;81.79
50933;BME280;36921;49.006;9.292;2023-04-03T11:16:23;99694.13;;;8.35;76.52
50933;BME280;36921;49.006;9.292;2023-04-03T11:18:56;99695.00;;;8.28;66.98
50933;BME280;36921;49.006;9.292;2023-04-03T11:21:29;99695.50;;;8.31;65.54
50933;BME280;36921;49.006;9.292;2023-04-03T11:24:17;99696.81;;;8.27;62.46
50933;BME280;36921;49.006;9.292;2023-04-03T11:26:48;99687.28;;;7.74;61.99
50933;BME280;36921;49.006;9.292;2023-04-03T11:35:44;99685.66;;;7.89;64.74
50933;BME280;36921;49.006;9.292;2023-04-03T11:38:18;99675.38;;;7.93;64.67
50933;BME280;36921;49.006;9.292;2023-04-03T11:40:46;99680.16;;;8.16;62.63
50933;BME280;36921;49.006;9.292;2023-04-03T11:43:25;99688.97;;;8.50;61.84
50933;BME280;36921;49.006;9.292;2023-04-03T11:46:07;99678.56;;;9.36;61.26
50933;BME280;36921;49.006;9.292;2023-04-03T11:51:40;99683.00;;;8.96;57.18
50933;BME280;36921;49.006;9.292;2023-04-03T11:54:42;99684.41;;;8.75;59.51
50933;BME280;36921;49.006;9.292;2023-04-03T11:57:44;99674.56;;;9.07;58.64
50933;BME280;36921;49.006;9.292;2023-04-03T12:08:43;99659.03;;;10.65;53.91
50933;BME280;36921;49.006;9.292;2023-04-03T12:16:29;99630.00;;;11.63;56.88
50933;BME280;36921;49.006;9.292;2023-04-03T12:19:04;99656.03;;;11.28;56.96
50933;BME280;36921;49.006;9.292;2023-04-03T12:29:43;99648.75;;;9.13;55.19
50933;BME280;36921;49.006;9.292;2023-04-03T12:32:32;99652.31;;;9.53;54.23
50933;BME280;36921;49.006;9.292;2023-04-03T12:46:42;99628.06;;;10.45;50.64
50933;BME280;36921;49.006;9.292;2023-04-03T12:49:37;99625.91;;;10.78;50.36
50933;BME280;36921;49.006;9.292;2023-04-03T12:52:30;99630.78;;;10.83;48.32
50933;BME280;36921;49.006;9.292;2023-04-03T12:54:56;99619.88;;;11.06;48.18
50933;BME280;36921;49.006;9.292;2023-04-03T12:57:26;99608.84;;;10.78;47.45
50933;BME280;36921;49.006;9.292;2023-04-03T12:59:52;99625.34;;;10.68;52.56
50933;BME280;36921;49.006;9.292;2023-04-03T13:04:55;99611.09;;;13.40;45.80
50933;BME280;36921;49.006;9.292;2023-04-03T13:07:29;99589.75;;;15.18;41.62
50933;BME280;36921;49.006;9.292;2023-04-03T13:10:02;99592.09;;;17.48;37.63
50933;BME280;36921;49.006;9.292;2023-04-03T13:12:28;99601.19;;;17.05;37.51
50933;BME280;36921;49.006;9.292;2023-04-03T13:14:57;99599.09;;;15.42;39.28
50933;BME280;36921;49.006;9.292;2023-04-03T13:17:24;99609.25;;;14.15;42.48
50933;BME280;36921;49.006;9.292;2023-04-03T13:19:49;99615.50;;;11.71;46.38
50933;BME280;36921;49.006;9.292;2023-04-03T13:24:58;99627.06;;;10.46;48.97
50933;BME280;36921;49.006;9.292;2023-04-03T13:27:25;99605.72;;;10.05;50.17
50933;BME280;36921;49.006;9.292;2023-04-03T13:29:53;99618.41;;;10.04;50.04
50933;BME280;36921;49.006;9.292;2023-04-03T13:32:22;99618.38;;;9.81;51.69
50933;BME280;36921;49.006;9.292;2023-04-03T13:34:48;99624.88;;;9.72;50.28
50933;BME280;36921;49.006;9.292;2023-04-03T13:37:27;99610.03;;;10.60;49.49
50933;BME280;36921;49.006;9.292;2023-04-03T13:39:57;99606.63;;;11.77;45.49
50933;BME280;36921;49.006;9.292;2023-04-03T13:42:31;99597.09;;;13.98;43.29
50933;BME280;36921;49.006;9.292;2023-04-03T13:45:25;99597.50;;;15.80;39.64
50933;BME280;36921;49.006;9.292;2023-04-03T13:48:07;99590.81;;;16.39;40.19
50933;BME280;36921;49.006;9.292;2023-04-03T13:50:33;99574.84;;;16.93;41.44
50933;BME280;36921;49.006;9.292;2023-04-03T13:53:09;99603.22;;;14.80;43.72
50933;BME280;36921;49.006;9.292;2023-04-03T13:55:50;99603.88;;;13.67;46.50
50933;BME280;36921;49.006;9.292;2023-04-03T13:58:23;99608.94;;;11.80;47.81
50933;BME280;36921;49.006;9.292;2023-04-03T14:00:53;99602.78;;;10.90;46.32
50933;BME280;36921;49.006;9.292;2023-04-03T14:05:50;99608.81;;;11.52;47.42
50933;BME280;36921;49.006;9.292;2023-04-03T14:08:16;99586.78;;;12.62;46.79
50933;BME280;36921;49.006;9.292;2023-04-03T14:10:42;99603.38;;;13.09;46.59
50933;BME280;36921;49.006;9.292;2023-04-03T14:13:13;99603.31;;;11.96;45.68
50933;BME280;36921;49.006;9.292;2023-04-03T14:15:40;99595.97;;;10.42;46.62
50933;BME280;36921;49.006;9.292;2023-04-03T14:18:05;99624.59;;;10.13;48.40
50933;BME280;36921;49.006;9.292;2023-04-03T14:20:31;99594.38;;;8.68;48.42
50933;BME280;36921;49.006;9.292;2023-04-03T14:22:56;99595.41;;;8.51;49.22
50933;BME280;36921;49.006;9.292;2023-04-03T14:25:22;99609.06;;;8.49;49.99
50933;BME280;36921;49.006;9.292;2023-04-03T14:27:50;99614.75;;;8.38;50.60
50933;BME280;36921;49.006;9.292;2023-04-03T14:30:25;99592.19;;;8.64;51.61
50933;BME280;36921;49.006;9.292;2023-04-03T14:32:51;99595.31;;;10.78;49.16
50933;BME280;36921;49.006;9.292;2023-04-03T14:35:17;99577.38;;;13.28;43.89
50933;BME280;36921;49.006;9.292;2023-04-03T14:37:44;99581.09;;;15.41;42.09
50933;BME280;36921;49.006;9.292;2023-04-03T14:40:13;99571.97;;;16.31;37.81
50933;BME280;36921;49.006;9.292;2023-04-03T14:42:39;99568.50;;;14.62;39.16
50933;BME280;36921;49.006;9.292;2023-04-03T14:45:09;99586.25;;;14.51;40.95
50933;BME280;36921;49.006;9.292;2023-04-03T14:47:41;99593.34;;;12.25;42.21
50933;BME280;36921;49.006;9.292;2023-04-03T14:50:08;99589.53;;;10.81;44.88
50933;BME280;36921;49.006;9.292;2023-04-03T14:52:38;99590.78;;;10.55;47.85
50933;BME280;36921;49.006;9.292;2023-04-03T14:55:05;99572.91;;;10.08;47.06
50933;BME280;36921;49.006;9.292;2023-04-03T14:57:31;99577.78;;;11.91;45.62
50933;BME280;36921;49.006;9.292;2023-04-03T14:59:56;99580.25;;;12.85;44.78